createdAt,value
2022-10-22T00:01:58.673Z,67.50
2022-10-22T00:04:35.633Z,67.30
2022-10-22T00:07:10.796Z,67.50
2022-10-22T00:09:46.538Z,66.90
2022-10-22T00:12:21.812Z,67.20
2022-10-22T00:14:57.545Z,67.90
2022-10-22T00:17:32.759Z,68.40
2022-10-22T00:20:08.468Z,68.40
2022-10-22T00:22:43.369Z,67.90
2022-10-22T00:25:18.635Z,68.00
2022-10-22T00:27:53.550Z,68.40
2022-10-22T00:30:28.670Z,68.60
2022-10-22T00:33:03.720Z,70.00
2022-10-22T00:35:38.760Z,71.50
2022-10-22T00:38:13.765Z,71.40
2022-10-22T00:40:48.938Z,72.00
2022-10-22T00:43:23.918Z,72.70
2022-10-22T00:45:58.791Z,73.00
2022-10-22T00:48:34.117Z,73.20
2022-10-22T00:51:09.739Z,73.70
2022-10-22T00:53:50.717Z,72.80
2022-10-22T00:56:25.895Z,71.60
2022-10-22T00:59:02.361Z,71.10
2022-10-22T01:01:37.225Z,70.40
2022-10-22T01:04:12.635Z,69.40
2022-10-22T01:06:48.198Z,70.40
2022-10-22T01:09:37.712Z,71.10
2022-10-22T01:12:32.061Z,71.00
2022-10-22T01:15:51.637Z,71.20
2022-10-22T01:19:05.029Z,71.80
2022-10-22T01:21:46.177Z,72.30
2022-10-22T01:24:35.517Z,71.80
2022-10-22T01:27:30.664Z,72.60
2022-10-22T01:30:10.039Z,74.20
2022-10-22T01:32:52.096Z,75.30
2022-10-22T01:35:37.988Z,76.00
2022-10-22T01:38:20.449Z,76.20
2022-10-22T01:40:56.720Z,76.30
2022-10-22T01:43:32.698Z,76.40
2022-10-22T01:46:10.271Z,76.40
2022-10-22T01:49:33.829Z,75.70
2022-10-22T01:52:40.484Z,76.00
2022-10-22T01:55:30.985Z,75.60
2022-10-22T01:58:26.919Z,75.60
2022-10-22T02:01:41.760Z,75.30
2022-10-22T02:04:57.110Z,75.30
2022-10-22T02:07:40.959Z,75.60
2022-10-22T02:10:18.532Z,75.10
2022-10-22T02:12:56.447Z,75.00
2022-10-22T02:15:32.931Z,73.80
2022-10-22T02:18:09.724Z,72.90
2022-10-22T02:20:44.606Z,71.60
2022-10-22T02:23:21.638Z,71.50
2022-10-22T02:26:07.227Z,72.00
2022-10-22T02:29:20.240Z,71.60
2022-10-22T02:31:57.704Z,71.70
2022-10-22T02:34:33.319Z,72.10
2022-10-22T02:37:09.392Z,72.50
2022-10-22T02:39:45.119Z,72.50
2022-10-22T02:42:20.101Z,72.60
2022-10-22T02:44:55.005Z,72.70
2022-10-22T02:47:30.327Z,72.80
2022-10-22T02:50:09.528Z,72.80
2022-10-22T02:52:45.356Z,72.70
2022-10-22T02:55:20.409Z,73.00
2022-10-22T02:57:55.385Z,73.20
2022-10-22T03:00:30.495Z,73.40
2022-10-22T03:03:05.732Z,73.80
2022-10-22T03:05:41.076Z,74.40
2022-10-22T03:08:15.987Z,74.70
2022-10-22T03:10:51.002Z,74.80
2022-10-22T03:13:25.951Z,75.20
2022-10-22T03:16:00.955Z,75.40
2022-10-22T03:18:36.077Z,75.20
2022-10-22T03:21:21.163Z,75.20
2022-10-22T03:23:56.802Z,75.00
2022-10-22T03:26:32.688Z,75.00
2022-10-22T03:29:08.685Z,74.70
2022-10-22T03:31:43.829Z,74.20
2022-10-22T03:34:18.712Z,74.10
2022-10-22T03:36:54.672Z,74.40
2022-10-22T03:39:32.695Z,74.50
2022-10-22T03:42:08.245Z,74.80
2022-10-22T03:44:43.771Z,74.80
2022-10-22T03:47:18.926Z,74.80
2022-10-22T03:49:53.860Z,75.30
2022-10-22T03:52:28.861Z,75.70
2022-10-22T03:55:05.617Z,75.80
2022-10-22T03:57:40.817Z,76.10
2022-10-22T04:00:16.571Z,76.20
2022-10-22T04:02:51.523Z,76.20
2022-10-22T04:05:26.562Z,76.20
2022-10-22T04:08:02.041Z,76.30
2022-10-22T04:10:37.144Z,76.40
2022-10-22T04:13:12.799Z,76.30
2022-10-22T04:15:47.906Z,76.40
2022-10-22T04:18:23.795Z,76.30
2022-10-22T04:20:58.753Z,76.20
2022-10-22T04:23:33.750Z,76.10
2022-10-22T04:26:08.645Z,76.10
2022-10-22T04:28:43.770Z,76.20
2022-10-22T04:31:22.526Z,76.20
2022-10-22T04:34:00.087Z,76.40
2022-10-22T04:36:35.130Z,76.60
2022-10-22T04:39:10.074Z,76.60
2022-10-22T04:41:45.018Z,76.60
2022-10-22T04:44:19.950Z,76.70
2022-10-22T04:46:55.087Z,76.70
2022-10-22T04:49:30.044Z,76.70
2022-10-22T04:52:05.101Z,76.80
2022-10-22T04:54:40.311Z,76.90
2022-10-22T04:57:15.208Z,77.10
2022-10-22T04:59:50.155Z,77.00
2022-10-22T05:02:25.157Z,76.80
2022-10-22T05:05:00.194Z,76.80
2022-10-22T05:07:35.185Z,76.70
2022-10-22T05:10:10.349Z,76.50
2022-10-22T05:12:45.336Z,76.40
2022-10-22T05:15:20.225Z,76.50
2022-10-22T05:17:55.225Z,76.30
2022-10-22T05:20:30.138Z,75.80
2022-10-22T05:23:05.063Z,75.50
2022-10-22T05:25:40.041Z,75.60
2022-10-22T05:28:15.125Z,75.40
2022-10-22T05:30:55.261Z,75.30
2022-10-22T05:33:32.445Z,74.70
2022-10-22T05:36:09.614Z,72.70
2022-10-22T05:38:45.063Z,71.50
2022-10-22T05:41:23.586Z,70.80
2022-10-22T05:44:00.402Z,70.70
2022-10-22T05:46:36.224Z,69.00
2022-10-22T05:49:16.436Z,68.90
2022-10-22T05:51:51.336Z,68.00
2022-10-22T05:54:26.277Z,68.20
2022-10-22T05:57:01.222Z,68.70
2022-10-22T05:59:36.270Z,69.00
2022-10-22T06:02:12.701Z,69.10
2022-10-22T06:04:48.143Z,70.10
2022-10-22T06:07:23.170Z,70.20
2022-10-22T06:09:58.920Z,70.20
2022-10-22T06:12:33.910Z,70.50
2022-10-22T06:15:12.813Z,70.80
2022-10-22T06:17:48.509Z,71.50
2022-10-22T06:20:23.459Z,72.10
2022-10-22T06:22:58.686Z,72.70
2022-10-22T06:25:33.676Z,73.10
2022-10-22T06:28:08.607Z,73.70
2022-10-22T06:30:45.886Z,74.10
2022-10-22T06:33:21.677Z,74.40
2022-10-22T06:36:07.875Z,74.30
2022-10-22T06:38:43.820Z,73.90
2022-10-22T06:41:18.945Z,73.50
2022-10-22T06:43:54.347Z,73.20
2022-10-22T06:46:29.982Z,72.60
2022-10-22T06:49:05.773Z,71.70
2022-10-22T06:51:40.910Z,71.50
2022-10-22T06:54:15.883Z,71.20
2022-10-22T06:56:50.919Z,70.10
2022-10-22T06:59:25.883Z,69.50
2022-10-22T07:02:00.884Z,69.40
2022-10-22T07:04:36.419Z,69.10
2022-10-22T07:07:11.392Z,68.90
2022-10-22T07:09:50.580Z,68.80
2022-10-22T07:12:26.761Z,68.90
2022-10-22T07:15:01.796Z,68.60
2022-10-22T07:17:36.885Z,68.70
2022-10-22T07:20:12.651Z,69.00
2022-10-22T07:22:47.553Z,69.10
2022-10-22T07:25:22.532Z,68.80
2022-10-22T07:27:57.539Z,68.70
2022-10-22T07:30:32.572Z,68.40
2022-10-22T07:33:07.603Z,68.20
2022-10-22T07:35:43.118Z,68.10
2022-10-22T07:38:18.057Z,67.60
2022-10-22T07:40:52.972Z,67.30
2022-10-22T07:43:28.060Z,67.00
2022-10-22T07:46:03.047Z,66.50
2022-10-22T07:48:38.082Z,66.20
2022-10-22T07:51:13.696Z,65.90
2022-10-22T07:53:48.732Z,65.50
2022-10-22T07:56:23.660Z,65.10
2022-10-22T07:58:58.564Z,64.80
2022-10-22T08:01:33.568Z,64.60
2022-10-22T08:04:09.873Z,64.70
2022-10-22T08:06:47.244Z,63.50
2022-10-22T08:09:22.967Z,62.90
2022-10-22T08:11:57.870Z,63.10
2022-10-22T08:14:32.954Z,63.10
2022-10-22T08:17:07.914Z,63.30
2022-10-22T08:19:42.848Z,63.50
2022-10-22T08:22:17.819Z,63.60
2022-10-22T08:24:53.537Z,63.50
2022-10-22T08:27:28.507Z,64.40
2022-10-22T08:30:06.603Z,64.80
2022-10-22T08:32:41.984Z,65.40
2022-10-22T08:35:17.780Z,65.70
2022-10-22T08:37:52.809Z,66.00
2022-10-22T08:40:34.868Z,66.50
2022-10-22T08:44:09.652Z,66.90
2022-10-22T08:47:41.842Z,67.20
2022-10-22T08:50:30.628Z,67.00
2022-10-22T08:53:17.133Z,68.00
2022-10-22T08:55:54.223Z,68.20
2022-10-22T08:58:40.827Z,68.40
2022-10-22T09:01:27.936Z,68.30
2022-10-22T09:04:30.607Z,68.00
2022-10-22T09:07:05.465Z,67.90
2022-10-22T09:09:47.753Z,67.70
2022-10-22T09:12:24.858Z,67.70
2022-10-22T09:14:59.817Z,67.30
2022-10-22T09:18:05.655Z,66.20
2022-10-22T09:20:59.992Z,65.80
2022-10-22T09:24:12.530Z,64.60
2022-10-22T09:26:47.557Z,63.20
2022-10-22T09:29:34.646Z,62.30
2022-10-22T09:32:11.985Z,62.40
2022-10-22T09:34:48.933Z,61.70
2022-10-22T09:37:29.191Z,58.20
2022-10-22T09:40:06.351Z,54.80
2022-10-22T09:42:41.439Z,54.80
2022-10-22T09:45:25.183Z,54.20
2022-10-22T09:48:34.669Z,52.30
2022-10-22T09:51:22.709Z,52.00
2022-10-22T09:54:01.621Z,52.00
2022-10-22T09:56:43.477Z,51.00
2022-10-22T09:59:37.592Z,50.50
2022-10-22T10:02:20.299Z,48.80
2022-10-22T10:05:04.358Z,48.20
2022-10-22T10:07:39.695Z,47.70
2022-10-22T10:10:45.090Z,47.40
2022-10-22T10:13:57.041Z,47.30
2022-10-22T10:17:03.428Z,47.80
2022-10-22T10:19:53.752Z,45.90
2022-10-22T10:22:56.449Z,43.80
2022-10-22T10:25:43.155Z,43.80
2022-10-22T10:28:59.091Z,43.50
2022-10-22T10:32:15.182Z,42.40
2022-10-22T10:35:28.872Z,42.40
2022-10-22T10:38:44.919Z,41.70
2022-10-22T10:41:51.766Z,41.50
2022-10-22T10:45:02.843Z,41.50
2022-10-22T10:47:57.418Z,40.90
2022-10-22T10:51:09.013Z,40.20
2022-10-22T10:54:32.041Z,39.70
2022-10-22T10:57:46.999Z,39.90
2022-10-22T11:00:22.881Z,39.40
2022-10-22T11:03:35.101Z,39.40
2022-10-22T11:06:16.052Z,39.10
2022-10-22T11:08:59.409Z,38.50
2022-10-22T11:11:48.975Z,38.90
2022-10-22T11:14:39.513Z,38.30
2022-10-22T11:17:18.771Z,37.50
2022-10-22T11:20:05.154Z,38.10
2022-10-22T11:23:18.098Z,37.70
2022-10-22T11:25:51.386Z,37.70
2022-10-22T11:28:38.494Z,36.90
2022-10-22T11:31:18.377Z,36.90
2022-10-22T11:34:32.672Z,37.30
2022-10-22T11:37:11.571Z,37.40
2022-10-22T11:39:53.704Z,37.90
2022-10-22T11:42:46.657Z,38.60
2022-10-22T11:45:24.667Z,37.90
2022-10-22T11:48:18.955Z,38.00
2022-10-22T11:51:01.942Z,37.20
2022-10-22T11:53:39.208Z,40.20
2022-10-22T11:56:26.377Z,40.00
2022-10-22T11:59:01.306Z,41.20
2022-10-22T12:01:45.096Z,40.80
2022-10-22T12:04:23.263Z,40.40
2022-10-22T12:07:03.656Z,40.70
2022-10-22T12:09:41.023Z,36.50
2022-10-22T12:12:16.389Z,37.50
2022-10-22T12:14:55.073Z,36.00
2022-10-22T12:17:31.728Z,35.90
2022-10-22T12:20:14.318Z,36.90
2022-10-22T12:22:49.358Z,38.90
2022-10-22T12:25:35.451Z,39.90
2022-10-22T12:28:13.958Z,39.00
2022-10-22T12:30:48.914Z,37.70
2022-10-22T12:33:25.570Z,39.60
2022-10-22T12:36:04.093Z,38.20
2022-10-22T12:38:41.230Z,39.80
2022-10-22T12:41:16.182Z,39.50
2022-10-22T12:43:59.801Z,38.20
2022-10-22T12:46:36.018Z,38.10
2022-10-22T12:49:34.517Z,39.60
2022-10-22T12:52:17.694Z,38.50
2022-10-22T12:54:53.536Z,40.30
2022-10-22T12:57:28.567Z,38.20
2022-10-22T13:00:04.967Z,34.90
2022-10-22T13:02:43.438Z,38.70
2022-10-22T13:05:27.947Z,38.00
2022-10-22T13:08:16.384Z,38.20
2022-10-22T13:10:54.616Z,39.20
2022-10-22T13:13:45.717Z,35.70
2022-10-22T13:16:26.214Z,36.20
2022-10-22T13:19:01.341Z,36.00
2022-10-22T13:21:39.497Z,36.60
2022-10-22T13:24:22.597Z,33.50
2022-10-22T13:26:57.809Z,32.60
2022-10-22T13:29:32.882Z,34.60
2022-10-22T13:32:31.882Z,34.40
2022-10-22T13:35:06.990Z,35.90
2022-10-22T13:37:42.234Z,35.10
2022-10-22T13:40:18.192Z,35.10
2022-10-22T13:42:53.435Z,36.60
2022-10-22T13:45:28.393Z,33.60
2022-10-22T13:48:05.471Z,33.60
2022-10-22T13:50:40.476Z,34.40
2022-10-22T13:53:23.388Z,33.80
2022-10-22T13:55:58.403Z,34.60
2022-10-22T13:58:33.367Z,33.50
2022-10-22T14:01:26.094Z,30.70
2022-10-22T14:04:04.229Z,30.60
2022-10-22T14:06:39.199Z,33.30
2022-10-22T14:09:16.055Z,35.10
2022-10-22T14:11:50.993Z,31.80
2022-10-22T14:14:25.966Z,33.50
2022-10-22T14:17:01.608Z,33.50
2022-10-22T14:19:36.546Z,35.40
2022-10-22T14:22:21.493Z,34.80
2022-10-22T14:24:56.497Z,32.80
2022-10-22T14:27:31.460Z,33.20
2022-10-22T14:30:07.425Z,33.10
2022-10-22T14:32:42.783Z,32.20
2022-10-22T14:35:21.986Z,33.20
2022-10-22T14:37:58.352Z,33.40
2022-10-22T14:40:33.561Z,34.70
2022-10-22T14:43:12.982Z,31.90
2022-10-22T14:45:48.135Z,32.30
2022-10-22T14:48:24.016Z,34.20
2022-10-22T14:50:58.896Z,33.70
2022-10-22T14:53:33.835Z,33.50
2022-10-22T14:56:18.626Z,33.70
2022-10-22T14:58:53.755Z,31.10
2022-10-22T15:01:28.672Z,33.90
2022-10-22T15:04:03.612Z,33.90
2022-10-22T15:06:38.530Z,34.40
2022-10-22T15:09:13.574Z,33.10
2022-10-22T15:11:48.596Z,32.10
2022-10-22T15:14:23.729Z,32.20
2022-10-22T15:16:59.977Z,31.60
2022-10-22T15:19:35.029Z,33.10
2022-10-22T15:22:11.500Z,31.40
2022-10-22T15:24:46.476Z,33.30
2022-10-22T15:27:21.518Z,32.30
2022-10-22T15:29:58.836Z,32.10
2022-10-22T15:32:34.143Z,33.10
2022-10-22T15:35:09.307Z,33.30
2022-10-22T15:37:44.274Z,33.00
2022-10-22T15:40:19.172Z,32.90
2022-10-22T15:42:54.178Z,33.30
2022-10-22T15:45:29.347Z,34.20
2022-10-22T15:48:05.035Z,33.80
2022-10-22T15:50:40.236Z,33.50
2022-10-22T15:53:15.203Z,34.40
2022-10-22T15:55:50.153Z,34.80
2022-10-22T15:58:25.059Z,35.10
2022-10-22T16:01:13.062Z,35.00
2022-10-22T16:03:48.128Z,34.70
2022-10-22T16:06:23.057Z,35.40
2022-10-22T16:09:01.333Z,35.20
2022-10-22T16:11:37.486Z,35.30
2022-10-22T16:14:17.202Z,34.80
2022-10-22T16:16:55.604Z,35.20
2022-10-22T16:19:30.534Z,35.10
2022-10-22T16:22:05.462Z,35.20
2022-10-22T16:24:40.949Z,35.20
2022-10-22T16:27:15.942Z,35.20
2022-10-22T16:29:50.906Z,35.40
2022-10-22T16:32:25.848Z,34.80
2022-10-22T16:35:00.787Z,34.70
2022-10-22T16:37:35.773Z,35.20
2022-10-22T16:40:11.920Z,35.50
2022-10-22T16:42:47.053Z,35.20
2022-10-22T16:45:22.025Z,35.00
2022-10-22T16:47:56.961Z,36.10
2022-10-22T16:50:31.900Z,35.40
2022-10-22T16:53:06.774Z,36.30
2022-10-22T16:55:41.773Z,36.50
2022-10-22T16:58:16.661Z,36.50
2022-10-22T17:00:51.690Z,36.50
2022-10-22T17:03:28.351Z,36.40
2022-10-22T17:06:04.923Z,36.20
2022-10-22T17:08:41.089Z,36.40
2022-10-22T17:11:19.870Z,36.40
2022-10-22T17:13:55.066Z,36.30
2022-10-22T17:16:30.352Z,36.20
2022-10-22T17:19:05.387Z,36.40
2022-10-22T17:21:40.444Z,36.50
2022-10-22T17:24:15.633Z,36.40
2022-10-22T17:26:50.585Z,36.40
2022-10-22T17:29:25.548Z,36.80
2022-10-22T17:32:01.436Z,37.10
2022-10-22T17:34:36.396Z,37.30
2022-10-22T17:37:11.604Z,37.60
2022-10-22T17:39:46.653Z,38.00
2022-10-22T17:42:22.445Z,37.90
2022-10-22T17:44:57.913Z,37.90
2022-10-22T17:47:32.968Z,38.00
2022-10-22T17:50:08.864Z,38.20
2022-10-22T17:52:44.072Z,38.50
2022-10-22T17:55:19.315Z,38.80
2022-10-22T17:57:54.225Z,39.00
2022-10-22T18:00:32.305Z,39.40
2022-10-22T18:03:07.366Z,39.60
2022-10-22T18:05:42.342Z,39.80
2022-10-22T18:08:17.254Z,40.20
2022-10-22T18:10:52.226Z,40.40
2022-10-22T18:13:27.150Z,40.80
2022-10-22T18:16:02.517Z,41.30
2022-10-22T18:18:37.561Z,41.60
2022-10-22T18:21:12.477Z,41.90
2022-10-22T18:23:47.437Z,42.10
2022-10-22T18:26:25.951Z,42.10
2022-10-22T18:29:02.048Z,42.30
2022-10-22T18:31:37.066Z,42.40
2022-10-22T18:34:12.341Z,42.40
2022-10-22T18:36:47.290Z,43.00
2022-10-22T18:39:22.187Z,43.30
2022-10-22T18:41:57.155Z,43.60
2022-10-22T18:44:33.857Z,43.70
2022-10-22T18:47:08.781Z,43.80
2022-10-22T18:49:43.779Z,44.10
2022-10-22T18:52:18.674Z,44.50
2022-10-22T18:54:53.644Z,44.70
2022-10-22T18:57:28.623Z,44.80
2022-10-22T19:00:05.100Z,45.00
2022-10-22T19:02:40.414Z,45.30
2022-10-22T19:05:15.521Z,45.50
2022-10-22T19:07:50.833Z,45.90
2022-10-22T19:10:25.788Z,46.10
2022-10-22T19:13:00.800Z,46.40
2022-10-22T19:15:35.824Z,46.80
2022-10-22T19:18:11.098Z,47.10
2022-10-22T19:20:48.990Z,47.10
2022-10-22T19:23:23.986Z,47.20
2022-10-22T19:26:04.651Z,47.40
2022-10-22T19:28:41.234Z,47.60
2022-10-22T19:31:21.830Z,48.20
2022-10-22T19:33:59.288Z,48.20
2022-10-22T19:36:35.309Z,48.60
2022-10-22T19:39:10.573Z,49.00
2022-10-22T19:41:45.787Z,49.60
2022-10-22T19:44:20.986Z,49.90
2022-10-22T19:46:55.935Z,50.30
2022-10-22T19:49:31.030Z,50.40
2022-10-22T19:52:05.968Z,50.80
2022-10-22T19:54:41.881Z,50.90
2022-10-22T19:57:18.627Z,50.80
2022-10-22T19:59:53.630Z,51.10
2022-10-22T20:02:28.527Z,51.30
2022-10-22T20:05:03.891Z,51.80
2022-10-22T20:07:39.070Z,52.00
2022-10-22T20:10:14.863Z,52.40
2022-10-22T20:12:50.106Z,52.80
2022-10-22T20:15:25.473Z,52.80
2022-10-22T20:18:00.851Z,53.00
2022-10-22T20:20:38.377Z,53.10
2022-10-22T20:23:13.306Z,53.30
2022-10-22T20:25:48.716Z,53.50
2022-10-22T20:28:23.667Z,53.60
2022-10-22T20:30:58.573Z,54.10
2022-10-22T20:33:33.548Z,54.60
2022-10-22T20:36:14.143Z,55.20
2022-10-22T20:38:50.679Z,55.10
2022-10-22T20:41:25.682Z,55.30
2022-10-22T20:44:01.171Z,55.80
2022-10-22T20:46:36.124Z,56.10
2022-10-22T20:49:15.161Z,56.00
2022-10-22T20:51:50.104Z,56.10
2022-10-22T20:54:25.079Z,56.10
2022-10-22T20:56:59.993Z,56.50
2022-10-22T20:59:35.374Z,56.70
2022-10-22T21:02:11.027Z,56.80
2022-10-22T21:04:46.514Z,57.00
2022-10-22T21:07:22.551Z,57.10
2022-10-22T21:09:57.418Z,57.20
2022-10-22T21:12:32.383Z,57.80
2022-10-22T21:15:11.763Z,58.20
2022-10-22T21:17:47.663Z,58.50
2022-10-22T21:20:24.749Z,59.10
2022-10-22T21:22:59.953Z,59.60
2022-10-22T21:25:38.465Z,59.80
2022-10-22T21:28:16.923Z,59.90
2022-10-22T21:30:51.857Z,60.30
2022-10-22T21:33:26.769Z,60.70
2022-10-22T21:36:01.710Z,61.20
2022-10-22T21:38:37.769Z,61.50
2022-10-22T21:41:16.235Z,61.50
2022-10-22T21:43:51.823Z,61.60
2022-10-22T21:46:28.473Z,61.80
2022-10-22T21:49:04.436Z,62.00
2022-10-22T21:51:39.336Z,62.60
2022-10-22T21:54:14.254Z,63.10
2022-10-22T21:56:50.118Z,63.20
2022-10-22T21:59:25.054Z,63.50
2022-10-22T22:02:04.773Z,63.70
2022-10-22T22:04:40.799Z,64.00
2022-10-22T22:07:15.707Z,64.40
2022-10-22T22:09:51.220Z,64.80
2022-10-22T22:12:26.116Z,65.10
2022-10-22T22:15:01.026Z,65.80
2022-10-22T22:17:36.860Z,66.40
2022-10-22T22:20:11.887Z,66.90
2022-10-22T22:22:46.739Z,67.30
2022-10-22T22:25:21.753Z,67.50
2022-10-22T22:27:56.609Z,68.20
2022-10-22T22:30:31.479Z,68.40
2022-10-22T22:33:06.481Z,68.70
2022-10-22T22:35:41.375Z,68.60
2022-10-22T22:38:16.386Z,68.50
2022-10-22T22:40:51.257Z,68.50
2022-10-22T22:43:26.258Z,68.60
2022-10-22T22:46:07.458Z,68.60
2022-10-22T22:48:42.327Z,68.70
2022-10-22T22:51:17.752Z,68.70
2022-10-22T22:53:52.839Z,68.80
2022-10-22T22:56:32.417Z,69.00
2022-10-22T22:59:07.261Z,69.50
2022-10-22T23:01:42.612Z,69.80
2022-10-22T23:04:22.891Z,70.20
2022-10-22T23:06:57.814Z,70.40
2022-10-22T23:09:32.701Z,70.60
2022-10-22T23:12:07.742Z,70.80
2022-10-22T23:14:42.591Z,71.20
2022-10-22T23:17:19.327Z,71.90
2022-10-22T23:19:54.249Z,72.20
2022-10-22T23:22:29.298Z,72.60
2022-10-22T23:25:04.433Z,73.10
2022-10-22T23:27:39.412Z,73.30
2022-10-22T23:30:14.667Z,73.40
2022-10-22T23:32:49.578Z,73.60
2022-10-22T23:35:24.502Z,74.00
2022-10-22T23:37:59.402Z,74.00
2022-10-22T23:40:34.667Z,73.90
2022-10-22T23:43:09.557Z,73.90
2022-10-22T23:45:44.516Z,74.00
2022-10-22T23:48:20.486Z,74.20
2022-10-22T23:50:55.420Z,74.50
2022-10-22T23:53:31.317Z,74.30
2022-10-22T23:56:09.581Z,74.20
2022-10-22T23:58:45.234Z,74.30
